sensor_id;sensor_type;location;lat;lon;timestamp;temperature;humidity
1337;DHT22;662;48.814;9.318;2023-07-31T00:00:24;19.60;56.10
1337;DHT22;662;48.814;9.318;2023-07-31T00:02:49;19.60;56.30
1337;DHT22;662;48.814;9.318;2023-07-31T00:05:15;19.50;56.40
1337;DHT22;662;48.814;9.318;2023-07-31T00:07:41;19.50;56.60
1337;DHT22;662;48.814;9.318;2023-07-31T00:10:07;19.50;56.70
1337;DHT22;662;48.814;9.318;2023-07-31T00:12:33;19.50;56.70
1337;DHT22;662;48.814;9.318;2023-07-31T00:14:58;19.40;57.20
1337;DHT22;662;48.814;9.318;2023-07-31T00:17:24;19.40;56.40
1337;DHT22;662;48.814;9.318;2023-07-31T00:19:49;19.40;56.30
1337;DHT22;662;48.814;9.318;2023-07-31T00:22:16;19.30;56.40
1337;DHT22;662;48.814;9.318;2023-07-31T00:24:42;19.30;56.40
1337;DHT22;662;48.814;9.318;2023-07-31T00:27:07;19.20;56.00
1337;DHT22;662;48.814;9.318;2023-07-31T00:29:33;19.20;55.70
1337;DHT22;662;48.814;9.318;2023-07-31T00:31:58;19.20;55.70
1337;DHT22;662;48.814;9.318;2023-07-31T00:34:24;19.20;55.60
1337;DHT22;662;48.814;9.318;2023-07-31T00:36:49;19.10;55.50
1337;DHT22;662;48.814;9.318;2023-07-31T00:39:15;19.10;55.50
1337;DHT22;662;48.814;9.318;2023-07-31T00:41:40;19.10;55.40
1337;DHT22;662;48.814;9.318;2023-07-31T00:44:06;19.10;55.50
1337;DHT22;662;48.814;9.318;2023-07-31T00:46:32;19.10;55.60
1337;DHT22;662;48.814;9.318;2023-07-31T00:48:57;19.20;55.60
1337;DHT22;662;48.814;9.318;2023-07-31T00:51:23;19.20;55.80
1337;DHT22;662;48.814;9.318;2023-07-31T00:53:49;19.20;55.90
1337;DHT22;662;48.814;9.318;2023-07-31T00:56:15;19.20;56.20
1337;DHT22;662;48.814;9.318;2023-07-31T00:58:41;19.20;56.40
1337;DHT22;662;48.814;9.318;2023-07-31T01:01:07;19.20;56.70
1337;DHT22;662;48.814;9.318;2023-07-31T01:03:32;19.10;56.80
1337;DHT22;662;48.814;9.318;2023-07-31T01:06:40;19.10;56.90
1337;DHT22;662;48.814;9.318;2023-07-31T01:12:02;18.90;57.20
1337;DHT22;662;48.814;9.318;2023-07-31T01:14:28;18.90;57.40
1337;DHT22;662;48.814;9.318;2023-07-31T01:16:54;18.80;57.40
1337;DHT22;662;48.814;9.318;2023-07-31T01:19:24;18.80;57.60
1337;DHT22;662;48.814;9.318;2023-07-31T01:27:51;18.70;58.00
1337;DHT22;662;48.814;9.318;2023-07-31T01:30:22;18.70;58.10
1337;DHT22;662;48.814;9.318;2023-07-31T01:32:51;18.70;58.20
1337;DHT22;662;48.814;9.318;2023-07-31T01:35:18;18.70;58.20
1337;DHT22;662;48.814;9.318;2023-07-31T01:37:45;18.70;58.30
1337;DHT22;662;48.814;9.318;2023-07-31T01:40:10;18.60;58.30
1337;DHT22;662;48.814;9.318;2023-07-31T01:42:36;18.60;58.40
1337;DHT22;662;48.814;9.318;2023-07-31T01:45:01;18.50;58.40
1337;DHT22;662;48.814;9.318;2023-07-31T01:47:27;18.50;58.40
1337;DHT22;662;48.814;9.318;2023-07-31T01:49:53;18.50;58.40
1337;DHT22;662;48.814;9.318;2023-07-31T01:52:18;18.60;58.60
1337;DHT22;662;48.814;9.318;2023-07-31T01:54:44;18.60;58.60
1337;DHT22;662;48.814;9.318;2023-07-31T01:57:09;18.60;58.60
1337;DHT22;662;48.814;9.318;2023-07-31T01:59:35;18.60;58.60
1337;DHT22;662;48.814;9.318;2023-07-31T02:02:01;18.60;58.50
1337;DHT22;662;48.814;9.318;2023-07-31T02:04:26;18.60;58.50
1337;DHT22;662;48.814;9.318;2023-07-31T02:06:53;18.60;58.60
1337;DHT22;662;48.814;9.318;2023-07-31T02:09:18;18.60;58.50
1337;DHT22;662;48.814;9.318;2023-07-31T02:11:44;18.60;58.60
1337;DHT22;662;48.814;9.318;2023-07-31T02:14:10;18.50;58.60
1337;DHT22;662;48.814;9.318;2023-07-31T02:16:35;18.50;58.60
1337;DHT22;662;48.814;9.318;2023-07-31T02:19:01;18.50;58.80
1337;DHT22;662;48.814;9.318;2023-07-31T02:21:26;18.50;58.80
1337;DHT22;662;48.814;9.318;2023-07-31T02:23:52;18.40;59.00
1337;DHT22;662;48.814;9.318;2023-07-31T02:26:18;18.40;59.10
1337;DHT22;662;48.814;9.318;2023-07-31T02:28:43;18.40;59.10
1337;DHT22;662;48.814;9.318;2023-07-31T02:31:09;18.40;59.20
1337;DHT22;662;48.814;9.318;2023-07-31T02:33:34;18.40;59.30
1337;DHT22;662;48.814;9.318;2023-07-31T02:36:00;18.40;59.30
1337;DHT22;662;48.814;9.318;2023-07-31T02:38:26;18.40;59.40
1337;DHT22;662;48.814;9.318;2023-07-31T02:40:52;18.30;59.30
1337;DHT22;662;48.814;9.318;2023-07-31T02:43:17;18.30;59.30
1337;DHT22;662;48.814;9.318;2023-07-31T02:45:43;18.30;58.90
1337;DHT22;662;48.814;9.318;2023-07-31T02:48:08;18.30;58.70
1337;DHT22;662;48.814;9.318;2023-07-31T02:50:34;18.30;58.60
1337;DHT22;662;48.814;9.318;2023-07-31T02:53:00;18.40;58.40
1337;DHT22;662;48.814;9.318;2023-07-31T02:55:25;18.30;58.30
1337;DHT22;662;48.814;9.318;2023-07-31T02:57:51;18.30;58.30
1337;DHT22;662;48.814;9.318;2023-07-31T03:00:17;18.30;58.30
1337;DHT22;662;48.814;9.318;2023-07-31T03:02:43;18.30;58.20
1337;DHT22;662;48.814;9.318;2023-07-31T03:05:09;18.30;58.30
1337;DHT22;662;48.814;9.318;2023-07-31T03:07:34;18.30;58.30
1337;DHT22;662;48.814;9.318;2023-07-31T03:10:00;18.30;58.30
1337;DHT22;662;48.814;9.318;2023-07-31T03:12:27;18.30;58.20
1337;DHT22;662;48.814;9.318;2023-07-31T03:14:53;18.30;58.10
1337;DHT22;662;48.814;9.318;2023-07-31T03:17:18;18.30;58.00
1337;DHT22;662;48.814;9.318;2023-07-31T03:19:44;18.40;58.10
1337;DHT22;662;48.814;9.318;2023-07-31T03:22:09;18.30;58.10
1337;DHT22;662;48.814;9.318;2023-07-31T03:24:35;18.30;57.90
1337;DHT22;662;48.814;9.318;2023-07-31T03:27:00;18.30;57.90
1337;DHT22;662;48.814;9.318;2023-07-31T03:29:26;18.30;57.90
1337;DHT22;662;48.814;9.318;2023-07-31T03:31:51;18.30;58.00
1337;DHT22;662;48.814;9.318;2023-07-31T03:34:17;18.30;58.10
1337;DHT22;662;48.814;9.318;2023-07-31T03:36:43;18.30;58.30
1337;DHT22;662;48.814;9.318;2023-07-31T03:39:09;18.30;58.10
1337;DHT22;662;48.814;9.318;2023-07-31T03:41:35;18.30;58.10
1337;DHT22;662;48.814;9.318;2023-07-31T03:44:00;18.30;58.10
1337;DHT22;662;48.814;9.318;2023-07-31T03:46:26;18.30;58.20
1337;DHT22;662;48.814;9.318;2023-07-31T03:48:51;18.30;58.30
1337;DHT22;662;48.814;9.318;2023-07-31T03:51:17;18.30;58.40
1337;DHT22;662;48.814;9.318;2023-07-31T03:53:43;18.30;58.10
1337;DHT22;662;48.814;9.318;2023-07-31T03:56:09;18.30;58.00
1337;DHT22;662;48.814;9.318;2023-07-31T03:58:35;18.30;58.00
1337;DHT22;662;48.814;9.318;2023-07-31T04:01:01;18.40;58.00
1337;DHT22;662;48.814;9.318;2023-07-31T04:03:26;18.40;57.80
1337;DHT22;662;48.814;9.318;2023-07-31T04:05:54;18.40;57.60
1337;DHT22;662;48.814;9.318;2023-07-31T04:08:20;18.50;57.60
1337;DHT22;662;48.814;9.318;2023-07-31T04:10:46;18.50;57.50
1337;DHT22;662;48.814;9.318;2023-07-31T04:13:12;18.50;57.60
1337;DHT22;662;48.814;9.318;2023-07-31T04:15:38;18.50;57.60
1337;DHT22;662;48.814;9.318;2023-07-31T04:18:04;18.50;57.40
1337;DHT22;662;48.814;9.318;2023-07-31T04:20:30;18.50;57.10
1337;DHT22;662;48.814;9.318;2023-07-31T04:22:56;18.50;56.90
1337;DHT22;662;48.814;9.318;2023-07-31T04:25:21;18.50;56.80
1337;DHT22;662;48.814;9.318;2023-07-31T04:27:47;18.50;56.90
1337;DHT22;662;48.814;9.318;2023-07-31T04:30:13;18.50;56.90
1337;DHT22;662;48.814;9.318;2023-07-31T04:32:39;18.40;56.80
1337;DHT22;662;48.814;9.318;2023-07-31T04:35:05;18.40;56.70
1337;DHT22;662;48.814;9.318;2023-07-31T04:37:30;18.40;56.80
1337;DHT22;662;48.814;9.318;2023-07-31T04:39:56;18.50;56.90
1337;DHT22;662;48.814;9.318;2023-07-31T04:42:22;18.50;56.80
1337;DHT22;662;48.814;9.318;2023-07-31T04:44:48;18.50;56.70
1337;DHT22;662;48.814;9.318;2023-07-31T04:47:13;18.60;56.70
1337;DHT22;662;48.814;9.318;2023-07-31T04:49:39;18.60;56.70
1337;DHT22;662;48.814;9.318;2023-07-31T04:52:05;18.60;56.70
1337;DHT22;662;48.814;9.318;2023-07-31T04:54:30;18.60;56.80
1337;DHT22;662;48.814;9.318;2023-07-31T04:56:56;18.60;56.80
1337;DHT22;662;48.814;9.318;2023-07-31T04:59:22;18.60;56.70
1337;DHT22;662;48.814;9.318;2023-07-31T05:01:47;18.70;56.80
1337;DHT22;662;48.814;9.318;2023-07-31T05:04:13;18.70;56.90
1337;DHT22;662;48.814;9.318;2023-07-31T05:06:40;18.70;56.80
1337;DHT22;662;48.814;9.318;2023-07-31T05:09:06;18.70;56.70
1337;DHT22;662;48.814;9.318;2023-07-31T05:11:31;18.80;56.80
1337;DHT22;662;48.814;9.318;2023-07-31T05:13:57;18.80;56.80
1337;DHT22;662;48.814;9.318;2023-07-31T05:16:22;18.80;56.80
1337;DHT22;662;48.814;9.318;2023-07-31T05:18:48;18.80;56.70
1337;DHT22;662;48.814;9.318;2023-07-31T05:21:14;18.90;56.70
1337;DHT22;662;48.814;9.318;2023-07-31T05:23:39;18.90;56.60
1337;DHT22;662;48.814;9.318;2023-07-31T05:26:05;18.90;56.50
1337;DHT22;662;48.814;9.318;2023-07-31T05:28:31;18.90;56.50
1337;DHT22;662;48.814;9.318;2023-07-31T05:31:01;18.90;56.50
1337;DHT22;662;48.814;9.318;2023-07-31T05:33:26;18.90;56.50
1337;DHT22;662;48.814;9.318;2023-07-31T05:35:52;18.90;56.50
1337;DHT22;662;48.814;9.318;2023-07-31T05:38:18;18.90;56.60
1337;DHT22;662;48.814;9.318;2023-07-31T05:40:44;18.80;56.70
1337;DHT22;662;48.814;9.318;2023-07-31T05:43:09;18.80;56.80
1337;DHT22;662;48.814;9.318;2023-07-31T05:45:35;18.80;56.70
1337;DHT22;662;48.814;9.318;2023-07-31T05:48:01;18.80;56.80
1337;DHT22;662;48.814;9.318;2023-07-31T05:50:26;18.80;56.70
1337;DHT22;662;48.814;9.318;2023-07-31T05:52:52;18.90;56.60
1337;DHT22;662;48.814;9.318;2023-07-31T05:55:18;18.90;56.60
1337;DHT22;662;48.814;9.318;2023-07-31T05:57:43;19.00;56.70
1337;DHT22;662;48.814;9.318;2023-07-31T06:00:12;19.00;56.50
1337;DHT22;662;48.814;9.318;2023-07-31T06:02:37;19.10;56.50
1337;DHT22;662;48.814;9.318;2023-07-31T06:05:04;19.10;56.40
1337;DHT22;662;48.814;9.318;2023-07-31T06:07:31;19.10;56.80
1337;DHT22;662;48.814;9.318;2023-07-31T06:09:57;19.20;56.40
1337;DHT22;662;48.814;9.318;2023-07-31T06:12:28;19.20;56.30
1337;DHT22;662;48.814;9.318;2023-07-31T06:14:54;19.20;56.40
1337;DHT22;662;48.814;9.318;2023-07-31T06:17:20;19.10;56.30
1337;DHT22;662;48.814;9.318;2023-07-31T06:19:47;19.10;56.50
1337;DHT22;662;48.814;9.318;2023-07-31T06:22:12;19.20;56.70
1337;DHT22;662;48.814;9.318;2023-07-31T06:24:38;19.20;56.70
1337;DHT22;662;48.814;9.318;2023-07-31T06:27:04;19.30;56.80
1337;DHT22;662;48.814;9.318;2023-07-31T06:29:30;19.40;56.80
1337;DHT22;662;48.814;9.318;2023-07-31T06:31:56;19.50;56.90
1337;DHT22;662;48.814;9.318;2023-07-31T06:34:21;19.60;56.70
1337;DHT22;662;48.814;9.318;2023-07-31T06:36:47;19.70;56.40
1337;DHT22;662;48.814;9.318;2023-07-31T06:39:13;19.80;55.80
1337;DHT22;662;48.814;9.318;2023-07-31T06:41:39;19.90;55.50
1337;DHT22;662;48.814;9.318;2023-07-31T06:44:04;20.00;55.00
1337;DHT22;662;48.814;9.318;2023-07-31T06:46:30;20.10;54.70
1337;DHT22;662;48.814;9.318;2023-07-31T06:48:56;20.20;54.60
1337;DHT22;662;48.814;9.318;2023-07-31T06:51:21;20.20;54.10
1337;DHT22;662;48.814;9.318;2023-07-31T06:53:47;20.30;54.00
1337;DHT22;662;48.814;9.318;2023-07-31T06:56:13;20.40;53.50
1337;DHT22;662;48.814;9.318;2023-07-31T06:58:39;20.40;53.50
1337;DHT22;662;48.814;9.318;2023-07-31T07:01:04;20.50;53.70
1337;DHT22;662;48.814;9.318;2023-07-31T07:03:30;20.60;53.70
1337;DHT22;662;48.814;9.318;2023-07-31T07:05:56;20.80;53.70
1337;DHT22;662;48.814;9.318;2023-07-31T07:08:21;20.80;53.60
1337;DHT22;662;48.814;9.318;2023-07-31T07:10:47;20.90;53.60
1337;DHT22;662;48.814;9.318;2023-07-31T07:13:13;21.00;53.40
1337;DHT22;662;48.814;9.318;2023-07-31T07:15:39;21.10;53.00
1337;DHT22;662;48.814;9.318;2023-07-31T07:18:05;21.20;52.60
1337;DHT22;662;48.814;9.318;2023-07-31T07:20:30;21.30;52.60
1337;DHT22;662;48.814;9.318;2023-07-31T07:22:56;21.40;52.20
1337;DHT22;662;48.814;9.318;2023-07-31T07:25:21;21.40;51.80
1337;DHT22;662;48.814;9.318;2023-07-31T07:27:47;21.50;52.00
1337;DHT22;662;48.814;9.318;2023-07-31T07:30:13;21.70;51.60
1337;DHT22;662;48.814;9.318;2023-07-31T07:32:39;21.80;51.10
1337;DHT22;662;48.814;9.318;2023-07-31T07:35:06;21.80;50.90
1337;DHT22;662;48.814;9.318;2023-07-31T07:37:32;21.90;51.00
1337;DHT22;662;48.814;9.318;2023-07-31T07:39:57;22.00;50.80
1337;DHT22;662;48.814;9.318;2023-07-31T07:42:23;22.00;50.20
1337;DHT22;662;48.814;9.318;2023-07-31T07:44:49;22.10;50.20
1337;DHT22;662;48.814;9.318;2023-07-31T07:47:14;22.20;50.30
1337;DHT22;662;48.814;9.318;2023-07-31T07:49:40;22.10;50.30
1337;DHT22;662;48.814;9.318;2023-07-31T07:52:06;22.20;50.10
1337;DHT22;662;48.814;9.318;2023-07-31T07:54:31;22.20;50.70
1337;DHT22;662;48.814;9.318;2023-07-31T07:56:57;22.20;50.20
1337;DHT22;662;48.814;9.318;2023-07-31T07:59:23;22.20;50.40
1337;DHT22;662;48.814;9.318;2023-07-31T08:01:49;22.20;50.30
1337;DHT22;662;48.814;9.318;2023-07-31T08:04:14;22.30;50.60
1337;DHT22;662;48.814;9.318;2023-07-31T08:06:40;22.40;50.30
1337;DHT22;662;48.814;9.318;2023-07-31T08:09:06;22.50;50.20
1337;DHT22;662;48.814;9.318;2023-07-31T08:11:34;22.70;49.80
1337;DHT22;662;48.814;9.318;2023-07-31T08:14:00;22.70;49.30
1337;DHT22;662;48.814;9.318;2023-07-31T08:16:26;22.80;49.00
1337;DHT22;662;48.814;9.318;2023-07-31T08:18:51;22.90;49.10
1337;DHT22;662;48.814;9.318;2023-07-31T08:21:17;23.00;49.00
1337;DHT22;662;48.814;9.318;2023-07-31T08:23:43;23.10;48.30
1337;DHT22;662;48.814;9.318;2023-07-31T08:26:15;23.20;48.00
1337;DHT22;662;48.814;9.318;2023-07-31T08:28:40;23.20;48.00
1337;DHT22;662;48.814;9.318;2023-07-31T08:31:06;23.20;47.80
1337;DHT22;662;48.814;9.318;2023-07-31T08:33:31;23.20;47.10
1337;DHT22;662;48.814;9.318;2023-07-31T08:35:57;23.30;47.20
1337;DHT22;662;48.814;9.318;2023-07-31T08:38:25;23.40;47.30
1337;DHT22;662;48.814;9.318;2023-07-31T08:40:51;23.40;47.10
1337;DHT22;662;48.814;9.318;2023-07-31T08:43:18;23.50;47.20
1337;DHT22;662;48.814;9.318;2023-07-31T08:45:44;23.60;46.90
1337;DHT22;662;48.814;9.318;2023-07-31T08:48:11;23.70;47.00
1337;DHT22;662;48.814;9.318;2023-07-31T08:50:38;23.80;47.10
1337;DHT22;662;48.814;9.318;2023-07-31T08:53:03;23.90;46.10
1337;DHT22;662;48.814;9.318;2023-07-31T08:55:29;23.90;45.90
1337;DHT22;662;48.814;9.318;2023-07-31T08:57:57;24.00;46.00
1337;DHT22;662;48.814;9.318;2023-07-31T09:00:23;24.10;45.80
1337;DHT22;662;48.814;9.318;2023-07-31T09:03:03;24.10;45.90
1337;DHT22;662;48.814;9.318;2023-07-31T09:05:30;24.10;46.60
1337;DHT22;662;48.814;9.318;2023-07-31T09:07:57;24.20;46.20
1337;DHT22;662;48.814;9.318;2023-07-31T09:10:23;24.20;46.50
1337;DHT22;662;48.814;9.318;2023-07-31T09:12:51;24.10;45.30
1337;DHT22;662;48.814;9.318;2023-07-31T09:15:17;24.10;45.20
1337;DHT22;662;48.814;9.318;2023-07-31T09:17:42;24.20;46.10
1337;DHT22;662;48.814;9.318;2023-07-31T09:20:19;24.10;45.60
1337;DHT22;662;48.814;9.318;2023-07-31T09:22:47;24.20;46.20
1337;DHT22;662;48.814;9.318;2023-07-31T09:25:24;24.20;46.30
1337;DHT22;662;48.814;9.318;2023-07-31T09:27:55;24.30;46.20
1337;DHT22;662;48.814;9.318;2023-07-31T09:30:21;24.40;46.00
1337;DHT22;662;48.814;9.318;2023-07-31T09:32:48;24.40;45.10
1337;DHT22;662;48.814;9.318;2023-07-31T09:35:19;24.30;45.10
1337;DHT22;662;48.814;9.318;2023-07-31T09:37:57;24.20;45.50
1337;DHT22;662;48.814;9.318;2023-07-31T09:40:34;24.10;45.80
1337;DHT22;662;48.814;9.318;2023-07-31T09:43:01;24.10;46.30
1337;DHT22;662;48.814;9.318;2023-07-31T09:45:28;24.20;46.90
1337;DHT22;662;48.814;9.318;2023-07-31T09:47:54;24.30;45.80
1337;DHT22;662;48.814;9.318;2023-07-31T09:50:23;24.30;45.50
1337;DHT22;662;48.814;9.318;2023-07-31T09:52:49;24.40;45.80
1337;DHT22;662;48.814;9.318;2023-07-31T09:55:16;24.50;45.60
1337;DHT22;662;48.814;9.318;2023-07-31T09:57:44;24.60;45.80
1337;DHT22;662;48.814;9.318;2023-07-31T10:00:11;24.80;45.50
1337;DHT22;662;48.814;9.318;2023-07-31T10:02:38;24.80;44.70
1337;DHT22;662;48.814;9.318;2023-07-31T10:05:06;25.00;44.30
1337;DHT22;662;48.814;9.318;2023-07-31T10:07:39;25.20;44.40
1337;DHT22;662;48.814;9.318;2023-07-31T10:10:08;25.40;43.80
1337;DHT22;662;48.814;9.318;2023-07-31T10:12:36;25.50;43.90
1337;DHT22;662;48.814;9.318;2023-07-31T10:15:04;25.40;43.80
1337;DHT22;662;48.814;9.318;2023-07-31T10:17:30;25.30;44.00
1337;DHT22;662;48.814;9.318;2023-07-31T10:19:58;25.10;44.10
1337;DHT22;662;48.814;9.318;2023-07-31T10:22:26;25.00;44.00
1337;DHT22;662;48.814;9.318;2023-07-31T10:24:54;24.80;44.20
1337;DHT22;662;48.814;9.318;2023-07-31T10:27:20;24.80;44.00
1337;DHT22;662;48.814;9.318;2023-07-31T10:29:47;24.80;44.10
1337;DHT22;662;48.814;9.318;2023-07-31T10:32:14;24.70;44.50
1337;DHT22;662;48.814;9.318;2023-07-31T10:34:41;24.80;44.30
1337;DHT22;662;48.814;9.318;2023-07-31T10:39:58;25.80;44.30
1337;DHT22;662;48.814;9.318;2023-07-31T10:42:35;26.20;43.30
1337;DHT22;662;48.814;9.318;2023-07-31T10:45:04;26.50;42.40
1337;DHT22;662;48.814;9.318;2023-07-31T10:47:29;27.00;41.00
1337;DHT22;662;48.814;9.318;2023-07-31T10:50:17;27.20;40.60
1337;DHT22;662;48.814;9.318;2023-07-31T10:52:56;27.90;39.90
1337;DHT22;662;48.814;9.318;2023-07-31T10:55:38;28.00;39.00
1337;DHT22;662;48.814;9.318;2023-07-31T10:58:09;27.80;38.70
1337;DHT22;662;48.814;9.318;2023-07-31T11:00:43;27.40;39.30
1337;DHT22;662;48.814;9.318;2023-07-31T11:03:11;27.10;39.80
1337;DHT22;662;48.814;9.318;2023-07-31T11:08:29;26.70;41.00
1337;DHT22;662;48.814;9.318;2023-07-31T11:11:12;26.50;40.90
1337;DHT22;662;48.814;9.318;2023-07-31T11:13:48;26.40;41.30
1337;DHT22;662;48.814;9.318;2023-07-31T11:16:15;26.50;41.40
1337;DHT22;662;48.814;9.318;2023-07-31T11:18:42;27.20;40.80
1337;DHT22;662;48.814;9.318;2023-07-31T11:21:12;27.80;39.50
1337;DHT22;662;48.814;9.318;2023-07-31T11:23:38;28.40;39.60
1337;DHT22;662;48.814;9.318;2023-07-31T11:26:05;29.00;37.80
1337;DHT22;662;48.814;9.318;2023-07-31T11:28:33;29.70;36.50
1337;DHT22;662;48.814;9.318;2023-07-31T11:30:59;30.20;35.80
1337;DHT22;662;48.814;9.318;2023-07-31T11:33:25;30.30;35.30
1337;DHT22;662;48.814;9.318;2023-07-31T11:35:51;30.10;35.10
1337;DHT22;662;48.814;9.318;2023-07-31T11:38:31;29.60;35.00
1337;DHT22;662;48.814;9.318;2023-07-31T11:41:02;29.20;36.00
1337;DHT22;662;48.814;9.318;2023-07-31T11:43:29;28.90;36.80
1337;DHT22;662;48.814;9.318;2023-07-31T11:45:58;28.60;37.20
1337;DHT22;662;48.814;9.318;2023-07-31T11:48:29;28.30;37.90
1337;DHT22;662;48.814;9.318;2023-07-31T11:50:58;27.90;38.50
1337;DHT22;662;48.814;9.318;2023-07-31T11:56:12;27.10;39.20
1337;DHT22;662;48.814;9.318;2023-07-31T11:58:39;26.70;40.00
1337;DHT22;662;48.814;9.318;2023-07-31T12:01:05;26.50;40.60
1337;DHT22;662;48.814;9.318;2023-07-31T12:03:31;26.30;41.40
1337;DHT22;662;48.814;9.318;2023-07-31T12:05:59;26.20;41.50
1337;DHT22;662;48.814;9.318;2023-07-31T12:08:25;26.20;41.40
1337;DHT22;662;48.814;9.318;2023-07-31T12:10:51;26.20;41.50
1337;DHT22;662;48.814;9.318;2023-07-31T12:15:48;26.20;42.10
1337;DHT22;662;48.814;9.318;2023-07-31T12:18:15;26.20;42.30
1337;DHT22;662;48.814;9.318;2023-07-31T12:20:45;26.20;41.90
1337;DHT22;662;48.814;9.318;2023-07-31T12:23:21;26.40;42.30
1337;DHT22;662;48.814;9.318;2023-07-31T12:26:13;26.50;42.50
1337;DHT22;662;48.814;9.318;2023-07-31T12:28:43;26.50;42.20
1337;DHT22;662;48.814;9.318;2023-07-31T12:31:11;26.40;42.20
1337;DHT22;662;48.814;9.318;2023-07-31T12:33:38;26.20;42.40
1337;DHT22;662;48.814;9.318;2023-07-31T12:36:11;26.20;42.80
1337;DHT22;662;48.814;9.318;2023-07-31T12:38:37;26.10;43.00
1337;DHT22;662;48.814;9.318;2023-07-31T12:41:03;26.00;42.80
1337;DHT22;662;48.814;9.318;2023-07-31T12:43:29;26.00;43.10
1337;DHT22;662;48.814;9.318;2023-07-31T12:45:55;25.90;43.10
1337;DHT22;662;48.814;9.318;2023-07-31T12:48:22;25.90;43.40
1337;DHT22;662;48.814;9.318;2023-07-31T12:50:47;25.80;43.70
1337;DHT22;662;48.814;9.318;2023-07-31T12:53:14;25.70;43.00
1337;DHT22;662;48.814;9.318;2023-07-31T12:55:40;25.50;43.60
1337;DHT22;662;48.814;9.318;2023-07-31T12:58:05;25.40;43.90
1337;DHT22;662;48.814;9.318;2023-07-31T13:00:31;25.30;44.10
1337;DHT22;662;48.814;9.318;2023-07-31T13:02:57;25.20;44.20
1337;DHT22;662;48.814;9.318;2023-07-31T13:05:22;25.20;44.30
1337;DHT22;662;48.814;9.318;2023-07-31T13:07:48;25.10;44.40
1337;DHT22;662;48.814;9.318;2023-07-31T13:10:14;25.10;44.50
1337;DHT22;662;48.814;9.318;2023-07-31T13:12:40;25.00;44.70
1337;DHT22;662;48.814;9.318;2023-07-31T13:15:06;25.00;45.00
1337;DHT22;662;48.814;9.318;2023-07-31T13:17:32;25.00;44.40
1337;DHT22;662;48.814;9.318;2023-07-31T13:19:58;25.00;44.50
1337;DHT22;662;48.814;9.318;2023-07-31T13:22:24;24.90;44.60
1337;DHT22;662;48.814;9.318;2023-07-31T13:24:49;24.80;44.40
1337;DHT22;662;48.814;9.318;2023-07-31T13:27:15;24.70;44.50
1337;DHT22;662;48.814;9.318;2023-07-31T13:29:47;24.70;44.70
1337;DHT22;662;48.814;9.318;2023-07-31T13:32:13;24.80;45.20
1337;DHT22;662;48.814;9.318;2023-07-31T13:34:38;24.80;45.20
1337;DHT22;662;48.814;9.318;2023-07-31T13:37:04;24.80;44.80
1337;DHT22;662;48.814;9.318;2023-07-31T13:39:31;24.80;45.20
1337;DHT22;662;48.814;9.318;2023-07-31T13:41:58;24.90;45.50
1337;DHT22;662;48.814;9.318;2023-07-31T13:44:24;25.10;45.70
1337;DHT22;662;48.814;9.318;2023-07-31T13:46:49;25.40;45.10
1337;DHT22;662;48.814;9.318;2023-07-31T13:49:15;25.70;43.90
1337;DHT22;662;48.814;9.318;2023-07-31T13:51:41;26.00;43.60
1337;DHT22;662;48.814;9.318;2023-07-31T13:54:06;26.20;43.20
1337;DHT22;662;48.814;9.318;2023-07-31T13:56:32;26.40;43.00
1337;DHT22;662;48.814;9.318;2023-07-31T13:58:58;26.70;43.00
1337;DHT22;662;48.814;9.318;2023-07-31T14:01:23;27.00;42.50
1337;DHT22;662;48.814;9.318;2023-07-31T14:03:49;27.20;42.40
1337;DHT22;662;48.814;9.318;2023-07-31T14:06:15;27.30;41.40
1337;DHT22;662;48.814;9.318;2023-07-31T14:08:40;27.60;41.50
1337;DHT22;662;48.814;9.318;2023-07-31T14:11:06;27.90;41.40
1337;DHT22;662;48.814;9.318;2023-07-31T14:13:32;28.10;41.00
1337;DHT22;662;48.814;9.318;2023-07-31T14:15:57;28.10;40.00
1337;DHT22;662;48.814;9.318;2023-07-31T14:18:23;28.00;39.80
1337;DHT22;662;48.814;9.318;2023-07-31T14:20:48;27.80;39.90
1337;DHT22;662;48.814;9.318;2023-07-31T14:23:14;27.60;40.40
1337;DHT22;662;48.814;9.318;2023-07-31T14:25:41;27.40;40.20
1337;DHT22;662;48.814;9.318;2023-07-31T14:28:06;27.20;40.70
1337;DHT22;662;48.814;9.318;2023-07-31T14:30:32;27.10;41.20
1337;DHT22;662;48.814;9.318;2023-07-31T14:32:58;27.00;41.60
1337;DHT22;662;48.814;9.318;2023-07-31T14:35:25;26.90;42.20
1337;DHT22;662;48.814;9.318;2023-07-31T14:37:51;26.70;42.40
1337;DHT22;662;48.814;9.318;2023-07-31T14:40:17;26.70;42.30
1337;DHT22;662;48.814;9.318;2023-07-31T14:42:45;26.60;42.30
1337;DHT22;662;48.814;9.318;2023-07-31T14:45:11;26.50;42.40
1337;DHT22;662;48.814;9.318;2023-07-31T14:47:36;26.40;42.70
1337;DHT22;662;48.814;9.318;2023-07-31T14:50:03;26.30;42.90
1337;DHT22;662;48.814;9.318;2023-07-31T14:52:29;26.20;43.20
1337;DHT22;662;48.814;9.318;2023-07-31T14:54:55;26.10;43.00
1337;DHT22;662;48.814;9.318;2023-07-31T14:57:20;26.20;43.30
1337;DHT22;662;48.814;9.318;2023-07-31T14:59:47;26.20;43.60
1337;DHT22;662;48.814;9.318;2023-07-31T15:02:13;26.20;43.60
1337;DHT22;662;48.814;9.318;2023-07-31T15:04:38;26.40;43.80
1337;DHT22;662;48.814;9.318;2023-07-31T15:07:04;26.50;43.00
1337;DHT22;662;48.814;9.318;2023-07-31T15:09:30;26.40;43.20
1337;DHT22;662;48.814;9.318;2023-07-31T15:11:57;26.40;43.40
1337;DHT22;662;48.814;9.318;2023-07-31T15:14:23;26.50;43.60
1337;DHT22;662;48.814;9.318;2023-07-31T15:16:49;26.70;43.60
1337;DHT22;662;48.814;9.318;2023-07-31T15:19:15;26.90;43.40
1337;DHT22;662;48.814;9.318;2023-07-31T15:21:40;27.00;43.20
1337;DHT22;662;48.814;9.318;2023-07-31T15:24:06;27.10;42.90
1337;DHT22;662;48.814;9.318;2023-07-31T15:26:32;27.20;43.00
1337;DHT22;662;48.814;9.318;2023-07-31T15:29:03;27.20;42.70
1337;DHT22;662;48.814;9.318;2023-07-31T15:31:34;27.30;42.40
1337;DHT22;662;48.814;9.318;2023-07-31T15:33:59;27.40;42.40
1337;DHT22;662;48.814;9.318;2023-07-31T15:36:25;27.30;42.20
1337;DHT22;662;48.814;9.318;2023-07-31T15:38:51;27.30;42.30
1337;DHT22;662;48.814;9.318;2023-07-31T15:41:18;27.40;41.90
1337;DHT22;662;48.814;9.318;2023-07-31T15:43:44;27.40;41.50
1337;DHT22;662;48.814;9.318;2023-07-31T15:46:10;27.30;41.40
1337;DHT22;662;48.814;9.318;2023-07-31T15:48:35;27.30;41.60
1337;DHT22;662;48.814;9.318;2023-07-31T15:51:01;27.20;41.40
1337;DHT22;662;48.814;9.318;2023-07-31T15:53:29;27.20;41.70
1337;DHT22;662;48.814;9.318;2023-07-31T15:55:54;27.10;41.60
1337;DHT22;662;48.814;9.318;2023-07-31T15:58:20;27.10;41.50
1337;DHT22;662;48.814;9.318;2023-07-31T16:00:46;27.10;41.80
1337;DHT22;662;48.814;9.318;2023-07-31T16:03:11;27.00;40.80
1337;DHT22;662;48.814;9.318;2023-07-31T16:05:37;26.90;41.10
1337;DHT22;662;48.814;9.318;2023-07-31T16:08:03;26.80;41.30
1337;DHT22;662;48.814;9.318;2023-07-31T16:10:28;26.70;41.60
1337;DHT22;662;48.814;9.318;2023-07-31T16:12:54;26.60;41.70
1337;DHT22;662;48.814;9.318;2023-07-31T16:15:20;26.50;41.90
1337;DHT22;662;48.814;9.318;2023-07-31T16:17:45;26.50;42.10
1337;DHT22;662;48.814;9.318;2023-07-31T16:20:11;26.40;42.40
1337;DHT22;662;48.814;9.318;2023-07-31T16:22:36;26.40;42.60
1337;DHT22;662;48.814;9.318;2023-07-31T16:25:03;26.40;42.90
1337;DHT22;662;48.814;9.318;2023-07-31T16:27:28;26.30;43.10
1337;DHT22;662;48.814;9.318;2023-07-31T16:29:54;26.20;43.00
1337;DHT22;662;48.814;9.318;2023-07-31T16:32:20;26.20;43.00